Station: Nullarbor

  Atmospheric Gas Attenuation - ITU Rec 676-11   --------------- db/100km ---------------
Date Time Temp RH % AH g/m3 Dew Point Wind Direction Speed kph Gust kph Barometer mB Rainfall Since 9am 24GHz 47GHz 76GHz 122GHz 134GHz 241GHz
27 13:30 19 48 7.82 7.8 41 50 1014 0.6 17.7 23.3 34.5 90.2 82.7 284.0
27 13:20 16.9 56 8.05 8.1 46 54 1014.5 0.6 18.3 24.2 36.2 95.0 87.8 301.6
27 13:10 20.7 31 5.58 3 50 61 1014.9 0 12.9 19.8 26.2 68.1 55.8 190.0
27 13:00 22 25 4.85 1.1 48 61 1014.9 0 11.4 18.6 23.5 60.9 47.4 160.3
27 12:50 22.4 25 4.96 1.4 50 69 1014.8 0 11.6 18.7 23.7 61.5 48.3 163.5
27 12:40 23 24 4.93 1.4 46 61 1014.5 0 11.5 18.5 23.4 60.8 47.6 161.2
27 12:30 22.9 24 4.9 1.3 52 69 1014.6 0 11.5 18.5 23.4 60.6 47.3 160.4
27 12:20 22.4 26 5.16 2 52 61 1014.3 0 12.0 18.9 24.3 63.1 50.3 170.7
27 12:10 20.9 28 5.1 1.7 50 61 1015.1 0 11.9 19.1 24.6 63.8 50.6 171.7
27 12:00 20.2 29 5.07 1.6 44 57 1015.7 0 11.9 19.3 24.7 64.1 50.8 172.1
27 11:50 19.7 29 4.92 1.2 48 57 1016.3 0 11.6 19.2 24.4 63.3 49.5 167.6
27 11:40 18.9 30 4.86 1 39 44 1017.4 0 11.5 19.3 24.5 63.4 49.4 167.1
27 11:30 18.8 30 4.83 0.9 37 50 1017.7 0 11.4 19.3 24.4 63.3 49.2 166.2
27 11:20 18.9 30 4.86 1 46 56 1017.8 0 11.5 19.3 24.5 63.5 49.4 167.2
27 11:10 19.4 30 5 1.4 35 41 1018.1 0 11.8 19.4 24.8 64.3 50.6 171.5
27 11:00 18.9 31 5.02 1.4 43 54 1018.7 0 11.8 19.6 25.0 64.9 51.2 173.3
27 10:50 18.4 31 4.88 1 44 52 1019.1 0 11.5 19.5 24.7 64.1 50.0 169.1
27 10:40 17.9 34 5.19 1.8 32 39 1019.4 0 12.2 20.0 25.9 67.3 53.7 182.1
27 10:30 17.5 34 5.07 1.5 39 52 1019.6 0 12.0 20.0 25.6 66.5 52.7 178.4
27 10:20 17.2 35 5.13 1.6 41 52 1018.9 0 12.1 20.1 25.9 67.3 53.5 181.2
27 10:10 17.1 34 4.95 1.1 54 65 1017.8 0 11.7 19.8 25.3 65.7 51.5 174.3
27 10:00 17.5 35 5.22 1.9 48 63 1017.3 0 12.3 20.1 26.1 67.7 54.2 183.8
27 09:50 16.2 37 5.1 1.5 57 63 1017.3 0 12.1 20.2 26.1 67.7 53.7 182.0
27 09:40 16.1 38 5.21 1.8 43 48 1017.5 0 12.3 20.4 26.5 68.8 55.0 186.6
27 09:30 15.8 38 5.12 1.5 41 59 1018 0 12.1 20.3 26.3 68.3 54.3 183.8
27 09:20 16 38 5.18 1.7 39 50 1019.2 0 12.3 20.4 26.5 68.7 54.9 185.9
27 09:10 16.6 38 5.37 2.2 35 43 1019.6 0 12.6 20.6 26.9 70.0 56.6 192.2
27 09:00 15.6 38 5.05 1.4 44 61 1019.9 0 12.0 20.3 26.2 67.9 53.7 181.8
27 08:50 16.6 38 5.37 2.2 43 50 1019.8 0 12.6 20.6 26.9 70.0 56.6 192.2
27 08:40 15.8 38 5.12 1.5 48 59 1019 0 12.1 20.4 26.3 68.3 54.3 184.0
27 08:30 15.2 41 5.32 2.1 39 50 1018.8 0 12.6 20.8 27.2 70.7 57.0 193.3
27 08:20 14.6 43 5.38 2.2 39 43 1018.4 0 12.7 21.0 27.6 71.7 58.1 197.1
27 08:10 13.5 46 5.38 2.1 41 48 1018.6 0 12.8 21.2 28.0 72.7 58.9 199.8
27 08:00 13.3 47 5.43 2.2 35 50 1019.1 0 12.9 21.4 28.2 73.4 59.7 202.5
27 07:50 13 48 5.44 2.3 35 39 1019.1 0 12.9 21.5 28.4 73.8 60.0 203.6
27 07:40 12.9 48 5.41 2.2 28 32 1020.1 0 12.8 21.5 28.3 73.7 59.8 202.8
27 07:30 13 48 5.44 2.3 30 41 1019.5 0 12.9 21.5 28.4 73.8 60.0 203.7
27 07:20 12.4 51 5.57 2.6 28 32 1019.2 0 13.2 21.8 29.0 75.6 62.0 210.6
27 07:10 12 52 5.54 2.5 28 32 1019.2 0 13.1 21.8 29.1 75.7 62.0 210.4
27 07:00 11.8 53 5.58 2.5 26 33 1019.4 0 13.2 22.0 29.3 76.3 62.6 212.7
27 06:50 11.7 53 5.54 2.5 26 32 1018.7 0 13.2 21.9 29.2 75.9 62.2 211.1
27 06:40 11.4 55 5.65 2.7 28 35 1018.4 0 13.4 22.1 29.7 77.3 63.7 216.5
27 06:30 11.4 55 5.65 2.7 24 32 1018.5 0 13.4 22.1 29.7 77.3 63.7 216.6
27 06:20 11.3 56 5.71 2.9 22 26 1018.3 0 13.5 22.2 29.9 78.0 64.5 219.4
27 06:10 11.2 57 5.78 3 30 35 1017.9 0 13.7 22.4 30.2 78.7 65.4 222.6
27 06:00 11.2 58 5.88 3.3 30 37 1017.9 0 13.9 22.5 30.6 79.7 66.7 226.9
27 05:50 11 59 5.91 3.3 26 32 1018 0 14.0 22.6 30.8 80.2 67.2 228.8
27 05:40 11 59 5.91 3.3 28 32 1017.9 0 14.0 22.6 30.8 80.2 67.2 228.8
27 05:30 11 60 6.01 3.5 26 35 1018 0 14.2 22.8 31.1 81.2 68.5 233.2
27 05:10 10.9 62 6.17 3.9 28 32 1017.9 0 14.5 23.0 31.8 82.9 70.6 240.5
27 04:40 10.1 68 6.43 4.5 24 28 1017.8 0 15.1 23.6 33.1 86.5 74.6 254.5
27 04:30 9.8 70 6.5 4.6 22 32 1017.8 0 15.3 23.8 33.5 87.5 75.8 258.6
27 04:20 9.6 72 6.6 4.8 22 26 1018.1 0 15.5 24.0 34.0 88.8 77.3 263.9
27 04:10 9.5 72 6.56 4.7 20 24 1018.1 0 15.4 24.0 33.9 88.5 76.9 262.4
27 04:00 9.4 73 6.6 4.8 20 26 1018.5 0 15.5 24.1 34.1 89.1 77.5 264.6
27 03:50 9.4 73 6.6 4.8 22 26 1018.5 0 15.5 24.1 34.1 89.1 77.5 264.6
27 03:40 9.3 74 6.65 4.9 20 24 1018.6 0 15.6 24.2 34.3 89.7 78.3 267.3
27 03:30 9.2 75 6.7 5 19 24 1018.9 0 15.7 24.3 34.6 90.4 79.0 270.0
27 03:20 9.1 76 6.75 5.1 19 22 1018.7 0 15.8 24.4 34.8 91.0 79.8 272.6
27 03:10 8.9 77 6.75 5.1 20 24 1018.8 0 15.8 24.5 34.9 91.3 80.0 273.3
27 03:00 8.6 79 6.79 5.2 19 20 1019.3 0 15.9 24.7 35.2 92.1 80.9 276.3
27 02:50 8.5 79 6.75 5.1 17 19 1019.4 0 15.9 24.6 35.1 91.8 80.5 274.9
27 02:40 8.5 79 6.75 5.1 17 19 1019.4 0 15.9 24.6 35.1 91.8 80.5 274.9
27 02:30 8.6 79 6.79 5.2 17 20 1019.7 0 15.9 24.7 35.2 92.1 80.9 276.4
27 02:20 8.6 80 6.88 5.4 19 20 1019.3 0 16.1 24.8 35.6 93.1 82.1 280.5
27 02:10 8.6 80 6.88 5.4 17 20 1019.4 0 16.1 24.8 35.6 93.1 82.1 280.6
27 02:00 8.6 81 6.96 5.5 17 20 1019.7 0 16.3 25.0 35.9 94.0 83.2 284.4
27 01:50 8.7 81 7.01 5.6 17 20 1019.7 0 16.4 25.0 36.1 94.4 83.7 286.4
27 01:40 8.7 81 7.01 5.6 17 19 1019.8 0 16.4 25.0 36.1 94.4 83.7 286.4
27 01:30 8.6 81 6.96 5.5 17 22 1020 0 16.3 25.0 35.9 94.0 83.2 284.5
27 01:20 8.6 81 6.96 5.5 17 19 1020.1 0 16.3 25.0 36.0 94.0 83.2 284.5
27 01:10 8.9 80 7.01 5.6 17 20 1020.3 0 16.4 25.0 36.0 94.2 83.6 285.8
27 01:00 9.2 79 7.06 5.8 19 22 1020.6 0 16.5 25.0 36.1 94.4 83.9 287.1
27 00:50 9.4 78 7.06 5.8 20 24 1020.5 0 16.5 24.9 36.0 94.2 83.7 286.3
27 00:40 9.7 77 7.1 5.9 22 24 1020.4 0 16.6 24.9 36.0 94.2 83.9 287.1
27 00:30 9.9 77 7.19 6.1 24 28 1020.6 0 16.7 25.0 36.3 95.0 84.9 290.6
27 00:20 10.1 76 7.19 6.1 26 30 1020.4 0 16.7 24.9 36.2 94.7 84.7 289.8
27 00:10 10.3 77 7.38 6.5 26 30 1020.5 0 17.1 25.2 36.9 96.5 87.0 297.9
27 00:00 10.5 77 7.47 6.6 26 35 1020.6 0 17.3 25.3 37.2 97.3 88.0 301.4
26 23:50 10.6 77 7.52 6.7 22 26 1020.8 0 17.4 25.3 37.3 97.7 88.5 303.4
26 23:40 10.9 77 7.66 7 24 30 1020.9 0 17.7 25.5 37.8 98.9 90.0 308.8
26 23:30 11 77 7.71 7.1 28 37 1020.9 0 17.8 25.5 37.9 99.3 90.6 310.7
26 23:20 11.2 76 7.7 7.1 26 32 1021.1 0 17.8 25.5 37.8 98.9 90.2 309.5
26 23:10 11.3 76 7.75 7.2 30 33 1021.2 0 17.9 25.5 37.9 99.4 90.8 311.5
26 23:00 11.4 77 7.9 7.5 30 39 1021.4 0 18.2 25.8 38.5 100.9 92.7 318.1
26 22:50 11.4 76 7.8 7.3 28 33 1021.4 0 18.0 25.6 38.1 99.8 91.4 313.5
26 22:40 11.6 76 7.9 7.5 30 35 1021.4 0 18.2 25.7 38.4 100.6 92.5 317.3
26 22:30 11.7 76 7.95 7.6 30 37 1021.6 0 18.3 25.8 38.6 101.1 93.0 319.3
26 22:20 11.8 76 8 7.7 30 32 1021.4 0 18.4 25.8 38.7 101.5 93.6 321.2
26 22:10 12.1 75 8.04 7.8 32 35 1021.3 0 18.5 25.8 38.7 101.5 93.7 321.8
26 22:00 12.2 74 7.99 7.7 30 44 1021.5 0 18.4 25.7 38.5 100.8 93.0 319.1
26 21:50 12.2 76 8.2 8.1 24 28 1021.3 0 18.8 26.0 39.3 103.1 95.7 328.9
26 21:40 12.4 75 8.2 8.1 32 37 1021.3 0 18.8 26.0 39.2 102.8 95.5 328.0
26 21:30 12.3 76 8.25 8.2 32 41 1021.4 0 18.9 26.1 39.5 103.5 96.3 330.8
26 21:20 12.5 75 8.25 8.2 30 35 1021.4 0 18.9 26.0 39.4 103.2 96.0 330.0
26 21:10 12.5 79 8.69 9 30 35 1021.4 0 19.8 26.7 41.2 108.0 102.0 350.7
26 21:00 12.7 79 8.79 9.2 30 39 1021.5 0 20.0 26.8 41.5 108.9 103.1 354.6
26 20:50 12.5 79 8.69 9 30 32 1021.4 0 19.8 26.7 41.2 108.0 102.0 350.7
26 20:40 12.6 78 8.63 8.9 28 33 1021.3 0 19.7 26.6 40.9 107.2 101.0 347.4
26 20:30 12.6 77 8.52 8.7 30 43 1021.4 0 19.5 26.4 40.4 106.0 99.5 342.2

Last Refresh: 27-Sep-2020 13:40:49

Most of the information presented on this site is sourced from the Bureau of Meteorology.  Copyright in all material sourced from the Bureau of Meteorology resides with the Commonwealth of Australia.